RJOS(METAR)
04/28 17:00
METAR RJOS 280800Z 16010KT 9999 FEW030 18/05 Q1006 RMK 1CU030 A2973=
戻る
トップページへ戻る
IMOC Co,.Ltd.